FW2297 Weather Reports


Display with metric or nautical units.
time (UTC)temp
F
wind
direction
speed
MPH
gust
MPH
rain 1hr
in
rain 24hr
in
rain mn
in
humidity
%
barometer
mb
20200329161640 39 144 4.0 8.0 0.11 0.20 0.20 93 1020.9
20200329161050 39 96 2.0 12.0 0.10 0.19 0.19 93 1020.5
20200329160558 39 141 4.0 12.0 0.10 0.18 0.18 92 1020.8
20200329160108 39 172 4.0 10.0 0.09 0.17 0.17 92 1021.1
20200329155552 39 129 3.0 8.0 0.07 0.15 0.15 92 1021.2
20200329155051 39 161 2.0 9.0 0.07 0.14 0.14 92 1021.2
20200329154708 39 239 4.0 9.0 0.06 0.13 0.13 92 1021.1
20200329154049 39 101 1.0 5.0 0.05 0.12 0.12 91 1021.2
20200329153612 39 207 1.0 6.0 0.04 0.11 0.11 91 1021.3
20200329153149 39 257 2.0 6.0 0.05 0.11 0.11 91 1021.4
20200329152606 39 117 2.0 6.0 0.04 0.10 0.10 91 1021.4
20200329152051 39 176 1.0 5.0 0.04 0.09 0.09 91 1021.4
20200329151707 39 165 1.0 4.0 0.04 0.09 0.09 91 1021.8
20200329151103 39 172 1.0 5.0 0.06 0.09 0.09 91 1021.8
20200329150552 39 158 2.0 7.0 0.05 0.08 0.08 91 1021.9
20200329150202 39 126 1.0 7.0 0.05 0.08 0.08 90 1021.8
20200329145551 39 135 2.0 6.0 0.06 0.08 0.08 90 1022.0
20200329145051 39 129 3.0 4.0 0.06 0.07 0.07 90 1022.1
20200329144627 39 187 3.0 4.0 0.06 0.07 0.07 90 1022.0
20200329144052 39 0 2.0 4.0 0.06 0.07 0.07 90 1022.2
20200329143551 39 161 0.0 4.0 0.06 0.07 0.07 90 1022.0
20200329143149 39 0 1.0 4.0 0.05 0.06 0.06 90 1022.0
20200329142549 39 198 0.0 3.0 0.05 0.06 0.06 89 1021.9
20200329142051 39 0 0.0 3.0 0.04 0.05 0.05 89 1021.9
20200329141615 39 150 1.0 4.0 0.03 0.04 0.04 88 1022.0
20200329141051 39 154 2.0 4.0 0.02 0.03 0.03 87 1022.0
20200329140555 39 245 0.0 5.0 0.02 0.03 0.03 87 1022.0
20200329140109 39 183 1.0 5.0 0.01 0.02 0.02 86 1021.8
20200329135554 39 0 0.0 2.0 0.01 0.02 0.02 86 1021.8
20200329135051 39 239 0.0 3.0 0.00 0.01 0.01 85 1021.8
20200329134653 39 0 0.0 5.0 0.00 0.01 0.01 84 1021.7
20200329134101 39 180 2.0 5.0 0.00 0.01 0.01 83 1021.8
20200329133551 39 158 0.0 5.0 0.00 0.01 0.01 83 1021.7
20200329133058 39 147 2.0 5.0 0.00 0.01 0.01 82 1021.8
20200329132552 39 0 1.0 3.0 0.00 0.01 0.01 80 1021.8
20200329132052 39 0 0.0 4.0 0.00 0.01 0.01 80 1021.7
20200329131620 39 0 0.0 6.0 0.00 0.01 0.01 80 1021.8
20200329131053 39 127 1.0 6.0 0.00 0.01 0.01 79 1021.7
20200329130549 39 143 2.0 6.0 0.00 0.01 0.01 80 1021.5
20200329130130 39 133 2.0 5.0 0.00 0.01 0.01 80 1021.4
20200329125553 39 157 0.0 4.0 0.00 0.01 0.01 81 1021.5
20200329125100 39 0 1.0 4.0 0.00 0.01 0.01 81 1021.7
20200329124717 39 139 0.0 4.0 0.00 0.01 0.01 81 1021.8
20200329124104 39 192 1.0 4.0 0.00 0.01 0.01 80 1021.8
20200329123556 39 242 1.0 5.0 0.00 0.01 0.01 80 1021.8
20200329123148 39 195 1.0 7.0 0.00 0.01 0.01 80 1021.8
20200329122552 39 151 2.0 7.0 0.00 0.01 0.01 79 1021.9
20200329122056 39 170 2.0 7.0 0.00 0.01 0.01 79 1022.0
20200329121604 39 0 0.0 3.0 0.00 0.01 0.01 78 1021.9
20200329121055 39 0 0.0 3.0 0.00 0.01 0.01 78 1021.9
20200329120555 39 184 1.0 4.0 0.00 0.01 0.01 77 1021.7
20200329120119 39 169 1.0 4.0 0.00 0.01 0.01 77 1021.7
20200329115551 39 172 0.0 6.0 0.00 0.01 0.01 76 1021.8
20200329115056 39 153 2.0 6.0 0.00 0.01 0.01 76 1021.7
20200329114601 39 149 1.0 3.0 0.00 0.01 0.01 76 1021.7
20200329114056 39 0 0.0 3.0 0.00 0.01 0.01 75 1021.8
20200329113603 39 179 1.0 4.0 0.00 0.01 0.01 75 1021.7
20200329113140 39 167 0.0 5.0 0.00 0.01 0.01 75 1021.4
20200329112600 39 166 2.0 5.0 0.00 0.01 0.01 75 1021.4
20200329112051 39 164 2.0 5.0 0.00 0.01 0.01 75 1021.4
20200329111634 39 164 1.0 3.0 0.00 0.01 0.01 76 1021.2
20200329111053 38 212 1.0 4.0 0.00 0.01 0.01 76 1021.4
20200329110551 38 165 2.0 4.0 0.00 0.01 0.01 76 1021.4
20200329110127 38 0 1.0 4.0 0.00 0.01 0.01 77 1021.2
20200329105600 38 0 0.0 3.0 0.00 0.01 0.01 79 1021.0
20200329105058 38 0 0.0 3.0 0.00 0.01 0.01 80 1021.0
20200329104603 38 0 0.0 3.0 0.00 0.01 0.01 80 1021.0
20200329104054 38 133 0.0 1.0 0.01 0.01 0.01 81 1021.0
20200329103554 38 0 0.0 0.0 0.01 0.01 0.01 82 1021.1
20200329103246 37 0 0.0 1.0 0.01 0.01 0.01 82 1021.1
20200329102553 37 0 0.0 1.0 0.01 0.01 0.01 83 1021.0
20200329102051 37 0 0.0 2.0 0.01 0.01 0.01 84 1020.9
20200329101703 37 0 0.0 2.0 0.01 0.01 0.01 84 1020.9
20200329101103 37 0 1.0 2.0 0.01 0.01 0.01 86 1020.8
20200329100605 37 0 0.0 0.0 0.01 0.01 0.01 87 1020.8
20200329100112 38 0 0.0 0.0 0.01 0.01 0.01 87 1020.9
20200329095552 38 0 0.0 1.0 0.01 0.01 0.01 87 1020.9
20200329095053 37 0 0.0 1.0 0.01 0.01 0.01 87 1020.9
20200329094607 38 0 0.0 0.0 0.01 0.01 0.01 88 1020.8
20200329094101 38 0 0.0 0.0 0.00 0.00 0.00 89 1020.6
20200329093606 38 0 0.0 0.0 0.00 0.00 0.00 89 1020.6
20200329093155 38 0 0.0 1.0 0.00 0.00 0.00 89 1020.5
20200329092610 37 0 0.0 1.0 0.00 0.00 0.00 89 1020.5
20200329092052 37 131 0.0 1.0 0.00 0.00 0.00 89 1020.5
20200329091710 37 0 0.0 2.0 0.00 0.00 0.00 89 1020.5
20200329091051 37 0 0.0 2.0 0.00 0.00 0.00 89 1020.5
20200329090553 37 131 0.0 2.0 0.00 0.00 0.00 89 1020.7
20200329090218 37 131 0.0 2.0 0.00 0.00 0.00 89 1020.7
20200329085609 38 0 1.0 2.0 0.00 0.00 0.00 89 1020.8
20200329085106 38 0 0.0 0.0 0.00 0.00 0.00 89 1020.8
20200329084638 38 0 0.0 0.0 0.00 0.00 0.00 88 1020.9
20200329084104 38 0 0.0 0.0 0.00 0.00 0.00 88 1020.8
20200329083607 38 0 0.0 0.0 0.00 0.00 0.00 88 1021.0
20200329083107 38 0 0.0 0.0 0.00 0.00 0.00 87 1021.1
20200329082602 38 0 0.0 0.0 0.00 0.00 0.00 87 1020.9
20200329082054 38 0 0.0 2.0 0.00 0.00 0.00 87 1020.8
20200329081749 38 0 0.0 2.0 0.00 0.00 0.00 86 1020.8
20200329081109 38 130 1.0 2.0 0.00 0.00 0.00 85 1020.8
20200329080553 38 130 1.0 2.0 0.00 0.00 0.00 84 1020.6
20200329080233 39 129 1.0 2.0 0.00 0.00 0.00 85 1020.5
20200329075553 39 0 0.0 2.0 0.00 0.00 0.00 84 1020.6
20200329075053 39 0 0.0 2.0 0.00 0.00 0.00 83 1020.4
20200329074700 39 129 0.0 2.0 0.00 0.00 0.00 81 1020.4
20200329074055 39 0 0.0 2.0 0.00 0.00 0.00 78 1020.5
20200329073550 39 129 0.0 2.0 0.00 0.00 0.00 77 1020.6
20200329073114 39 130 1.0 3.0 0.00 0.00 0.00 77 1020.6
20200329072614 39 130 0.0 3.0 0.00 0.00 0.00 74 1020.7
20200329072053 39 130 1.0 3.0 0.00 0.00 0.00 73 1020.8
20200329071604 39 0 0.0 2.0 0.00 0.00 0.00 71 1020.9
20200329071052 39 0 0.0 2.0 0.00 0.00 0.00 73 1020.8
20200329070603 39 130 1.0 2.0 0.00 0.00 0.00 74 1020.6
20200329070146 39 131 1.0 2.0 0.00 0.00 0.00 75 1020.4
20200329065551 39 131 0.0 2.0 0.00 0.00 0.00 71 1020.8
20200329065100 39 0 0.0 0.0 0.00 0.00 0.00 69 1020.7
20200329064645 39 0 0.0 0.0 0.00 0.00 0.00 68 1020.7
20200329064051 39 0 0.0 0.0 0.00 0.00 0.00 66 1020.5
20200329063601 39 0 0.0 0.0 0.00 0.00 0.00 69 1020.5
20200329063209 39 0 0.0 2.0 0.00 0.00 0.00 69 1020.1
20200329062552 39 0 0.0 2.0 0.00 0.00 0.00 66 1020.3
20200329062050 40 131 1.0 2.0 0.00 0.00 0.00 68 1020.4
20200329061616 40 131 0.0 3.0 0.00 0.00 0.00 68 1020.5
20200329061103 40 131 2.0 3.0 0.00 0.00 0.00 66 1020.4
20200329060606 40 0 0.0 0.0 0.00 0.00 0.00 65 1020.4
20200329060154 40 0 0.0 0.0 0.00 0.00 0.00 63 1020.8
20200329055551 40 0 0.0 0.0 0.00 0.00 0.00 65 1020.6
20200329055051 40 0 0.0 1.0 0.00 0.00 0.00 66 1020.4
20200329054556 40 0 0.0 1.0 0.00 0.00 0.00 62 1020.3
20200329054053 40 0 0.0 0.0 0.00 0.00 0.00 59 1020.4
20200329053554 40 0 0.0 0.0 0.00 0.00 0.00 61 1020.9
20200329053125 40 0 0.0 0.0 0.00 0.00 0.00 60 1020.8
20200329052551 40 0 0.0 0.0 0.00 0.00 0.00 62 1020.5
20200329052053 40 0 0.0 0.0 0.00 0.00 0.00 63 1020.4
20200329051603 41 0 0.0 1.0 0.00 0.00 0.00 66 1020.2
20200329051100 41 0 0.0 2.0 0.00 0.00 0.00 65 1020.3
20200329050553 41 0 1.0 2.0 0.00 0.00 0.00 63 1020.3
20200329050154 41 136 0.0 3.0 0.00 0.00 0.00 63 1020.3
20200329045556 41 136 1.0 3.0 0.00 0.00 0.00 60 1020.4
20200329045055 41 136 1.0 2.0 0.00 0.00 0.00 59 1020.5
20200329044603 41 0 0.0 0.0 0.00 0.00 0.00 55 1020.7
20200329044050 41 0 0.0 1.0 0.00 0.00 0.00 55 1021.0
20200329043550 41 0 0.0 1.0 0.00 0.00 0.00 56 1021.0
20200329043104 41 0 0.0 0.0 0.00 0.00 0.00 57 1021.0
20200329042551 41 0 0.0 0.0 0.00 0.00 0.00 60 1020.8
20200329042051 41 0 0.0 0.0 0.00 0.00 0.00 60 1020.9
20200329041634 41 0 0.0 2.0 0.00 0.00 0.00 60 1020.8
20200329041052 41 0 0.0 2.0 0.00 0.00 0.00 60 1020.5
20200329040550 42 135 0.0 2.0 0.00 0.00 0.00 58 1020.6
20200329040051 42 135 1.0 2.0 0.00 0.00 0.00 57 1020.5
20200329035558 42 135 0.0 2.0 0.00 0.00 0.00 54 1020.6
20200329035052 42 135 0.0 2.0 0.00 0.00 0.00 55 1020.7
20200329034557 42 135 1.0 2.0 0.00 0.00 0.00 56 1020.6
20200329034051 42 135 1.0 2.0 0.00 0.00 0.00 54 1020.6
20200329033601 42 136 1.0 2.0 0.00 0.00 0.00 53 1020.8
20200329033208 42 136 0.0 2.0 0.00 0.00 0.00 53 1020.8
20200329032609 42 137 1.0 2.0 0.00 0.00 0.00 54 1020.9
20200329032051 42 138 1.0 3.0 0.00 0.00 0.00 55 1021.0
20200329031648 42 138 1.0 3.0 0.00 0.00 0.00 57 1021.0
20200329031053 42 138 0.0 2.0 0.00 0.00 0.00 55 1020.9
20200329030550 42 0 0.0 1.0 0.00 0.00 0.00 56 1020.8
20200329030121 42 0 0.0 2.0 0.00 0.00 0.00 56 1020.6
20200329025551 42 0 0.0 2.0 0.00 0.00 0.00 57 1020.5
20200329025125 42 0 0.0 2.0 0.00 0.00 0.00 56 1020.6
20200329024616 42 0 1.0 2.0 0.00 0.00 0.00 55 1020.6
20200329024100 42 139 0.0 2.0 0.00 0.00 0.00 57 1020.7
20200329023557 42 0 0.0 2.0 0.00 0.00 0.00 58 1020.9
20200329023111 42 0 0.0 3.0 0.00 0.00 0.00 56 1020.8
20200329022550 42 0 1.0 3.0 0.00 0.00 0.00 55 1021.0
20200329022057 42 136 1.0 3.0 0.00 0.00 0.00 56 1020.9
20200329021615 42 137 1.0 3.0 0.00 0.00 0.00 54 1021.1
20200329021100 42 137 1.0 3.0 0.00 0.00 0.00 55 1021.2
20200329020607 42 137 1.0 3.0 0.00 0.00 0.00 55 1021.3
20200329020214 42 139 1.0 2.0 0.00 0.00 0.00 57 1021.1
20200329015552 42 139 1.0 2.0 0.00 0.00 0.00 55 1021.1
20200329015100 42 0 0.0 2.0 0.00 0.00 0.00 52 1021.2
20200329014722 42 0 0.0 2.0 0.00 0.00 0.00 52 1021.3
20200329014115 42 139 0.0 2.0 0.00 0.00 0.00 49 1021.2
20200329013551 42 139 1.0 3.0 0.00 0.00 0.00 50 1021.1
20200329013154 42 0 1.0 3.0 0.00 0.00 0.00 54 1021.1
20200329012550 42 135 1.0 3.0 0.00 0.00 0.00 52 1020.9
20200329012053 42 134 1.0 3.0 0.00 0.00 0.00 52 1021.1
20200329011722 42 134 1.0 3.0 0.00 0.00 0.00 54 1021.2
20200329011106 42 134 1.0 3.0 0.00 0.00 0.00 54 1021.1
20200329010602 43 134 2.0 3.0 0.00 0.00 0.00 52 1020.9
20200329010210 43 136 1.0 3.0 0.00 0.00 0.00 51 1020.9
20200329005554 43 139 1.0 3.0 0.00 0.00 0.00 49 1021.1
20200329005056 43 139 1.0 3.0 0.00 0.00 0.00 48 1021.0
20200329004644 43 139 1.0 3.0 0.00 0.00 0.00 49 1020.9
20200329004052 43 139 1.0 3.0 0.00 0.00 0.00 50 1020.8
20200329003604 43 140 1.0 3.0 0.00 0.00 0.00 51 1020.8
20200329003118 43 140 1.0 3.0 0.00 0.00 0.00 52 1020.6
20200329002555 43 140 2.0 3.0 0.00 0.00 0.00 51 1020.6
20200329002108 43 141 1.0 3.0 0.00 0.00 0.00 51 1020.6
20200329001720 43 141 1.0 3.0 0.00 0.00 0.00 50 1020.7
20200329001119 43 141 1.0 3.0 0.00 0.00 0.00 50 1020.8
20200329000550 43 141 1.0 4.0 0.00 0.00 0.00 50 1020.7
20200329000159 43 141 2.0 4.0 0.00 0.00 0.00 47 1020.4
20200328235604 43 143 1.0 3.0 0.00 0.00 0.00 50 1020.4
20200328235051 44 143 2.0 3.0 0.00 0.00 0.00 50 1020.5
20200328234555 44 144 1.0 3.0 0.00 0.00 0.00 50 1020.5
20200328234059 44 144 1.0 3.0 0.00 0.00 0.00 50 1020.3
20200328233551 44 144 1.0 3.0 0.00 0.00 0.00 49 1020.4
20200328233222 45 144 1.0 2.0 0.00 0.00 0.00 48 1020.4
20200328232552 45 145 1.0 3.0 0.00 0.00 0.00 48 1020.2
20200328232052 46 145 1.0 3.0 0.00 0.00 0.00 46 1020.2
20200328231610 46 148 1.0 3.0 0.00 0.00 0.00 44 1020.0
20200328231052 47 159 1.0 3.0 0.00 0.00 0.00 40 1019.8
20200328230552 47 164 0.0 2.0 0.00 0.00 0.00 38 1019.7
20200328230102 48 0 0.0 2.0 0.00 0.00 0.00 34 1019.6
20200328225553 48 164 0.0 2.0 0.00 0.00 0.00 36 1019.4
20200328225050 49 164 0.0 2.0 0.00 0.00 0.00 35 1019.6
20200328224602 49 0 0.0 3.0 0.00 0.00 0.00 33 1019.4
20200328224051 49 165 0.0 4.0 0.00 0.00 0.00 33 1019.4
20200328223550 50 0 1.0 4.0 0.00 0.00 0.00 34 1019.4
20200328223238 50 120 1.0 4.0 0.00 0.00 0.00 32 1019.1
20200328222550 50 0 2.0 4.0 0.00 0.00 0.00 32 1019.1
20200328222052 50 153 1.0 4.0 0.00 0.00 0.00 34 1019.2
20200328221619 50 0 0.0 4.0 0.00 0.00 0.00 32 1019.2
20200328221050 51 153 0.0 5.0 0.00 0.00 0.00 32 1019.2
20200328220552 51 142 2.0 5.0 0.00 0.00 0.00 31 1019.3
20200328220113 51 124 2.0 5.0 0.00 0.00 0.00 31 1019.3
20200328215555 51 0 1.0 3.0 0.00 0.00 0.00 32 1019.3
20200328215106 51 138 1.0 4.0 0.00 0.00 0.00 31 1019.2
20200328214754 51 143 1.0 5.0 0.00 0.00 0.00 30 1019.2
20200328214050 51 141 0.0 5.0 0.00 0.00 0.00 31 1019.2
20200328213600 51 0 1.0 4.0 0.00 0.00 0.00 30 1019.2
20200328213218 52 137 1.0 5.0 0.00 0.00 0.00 30 1019.1
20200328212603 52 170 2.0 5.0 0.00 0.00 0.00 28 1019.2
20200328212049 52 118 1.0 5.0 0.00 0.00 0.00 28 1018.8
20200328211606 52 164 1.0 5.0 0.00 0.00 0.00 28 1018.8
20200328211050 53 0 2.0 4.0 0.00 0.00 0.00 27 1018.8
20200328210550 53 171 0.0 4.0 0.00 0.00 0.00 26 1018.8
20200328210123 53 161 0.0 4.0 0.00 0.00 0.00 26 1018.8
20200328205551 53 156 1.0 3.0 0.00 0.00 0.00 25 1018.7
20200328205050 53 144 0.0 3.0 0.00 0.00 0.00 26 1018.7
20200328204625 53 0 1.0 3.0 0.00 0.00 0.00 25 1018.7
20200328204108 53 265 0.0 3.0 0.00 0.00 0.00 27 1018.6
20200328203553 53 252 1.0 5.0 0.00 0.00 0.00 25 1018.7
20200328203126 53 150 2.0 5.0 0.00 0.00 0.00 25 1018.8
20200328202552 53 166 0.0 5.0 0.00 0.00 0.00 25 1018.8
20200328202051 53 177 1.0 5.0 0.00 0.00 0.00 25 1018.9
20200328201637 53 115 0.0 3.0 0.00 0.00 0.00 25 1019.1
20200328201056 52 0 1.0 5.0 0.00 0.00 0.00 25 1018.8
20200328200552 52 229 0.0 5.0 0.00 0.00 0.00 26 1018.9
20200328200116 52 150 1.0 3.0 0.00 0.00 0.00 25 1018.9
20200328195551 52 14 1.0 5.0 0.00 0.00 0.00 26 1019.2
20200328195051 52 131 1.0 5.0 0.00 0.00 0.00 27 1019.1
20200328194619 52 162 0.0 3.0 0.00 0.00 0.00 26 1019.3
20200328194050 52 329 0.0 4.0 0.00 0.00 0.00 26 1019.3
20200328193602 52 287 2.0 4.0 0.00 0.00 0.00 25 1019.3
20200328193114 52 291 2.0 4.0 0.00 0.00 0.00 27 1019.1
20200328192551 52 20 0.0 4.0 0.00 0.00 0.00 27 1019.2
20200328192051 52 32 0.0 4.0 0.00 0.00 0.00 25 1019.2
20200328191614 52 191 0.0 3.0 0.00 0.00 0.00 25 1019.2
20200328191101 51 0 0.0 3.0 0.00 0.00 0.00 26 1019.3
20200328190557 51 289 1.0 3.0 0.00 0.00 0.00 26 1019.2
20200328190206 51 289 1.0 3.0 0.00 0.00 0.00 27 1019.1
20200328185551 51 0 0.0 3.0 0.00 0.00 0.00 26 1019.1
20200328185053 51 288 1.0 3.0 0.00 0.00 0.00 26 1019.2
20200328184627 51 0 0.0 3.0 0.00 0.00 0.00 26 1019.1
20200328184052 51 0 1.0 4.0 0.00 0.00 0.00 26 1019.2
20200328183551 51 285 2.0 4.0 0.00 0.00 0.00 27 1019.5
20200328183129 51 315 0.0 3.0 0.00 0.00 0.00 27 1019.6
20200328182552 51 35 0.0 3.0 0.00 0.00 0.00 26 1019.8
20200328182105 51 0 1.0 4.0 0.00 0.00 0.00 27 1019.7
20200328181716 51 205 0.0 4.0 0.00 0.00 0.00 27 1019.8
20200328181055 51 250 2.0 4.0 0.00 0.00 0.00 28 1019.9
20200328180555 51 247 1.0 4.0 0.00 0.00 0.00 28 1019.9
20200328180051 51 250 1.0 4.0 0.00 0.00 0.00 28 1019.9
20200328175553 51 0 1.0 4.0 0.00 0.00 0.00 27 1019.8
20200328175052 51 316 2.0 5.0 0.00 0.00 0.00 28 1020.1
20200328174657 50 321 1.0 5.0 0.00 0.00 0.00 27 1020.1
20200328174051 50 282 1.0 5.0 0.00 0.00 0.00 28 1020.2
20200328173608 50 307 3.0 6.0 0.00 0.00 0.00 27 1020.1
20200328173151 50 260 2.0 6.0 0.00 0.00 0.00 28 1020.2
20200328172552 50 288 1.0 5.0 0.00 0.00 0.00 29 1020.1
20200328172052 50 339 0.0 5.0 0.00 0.00 0.00 28 1020.2
20200328171631 50 335 2.0 4.0 0.00 0.00 0.00 28 1020.2
20200328171057 50 334 2.0 5.0 0.00 0.00 0.00 30 1020.2
20200328170613 49 313 2.0 5.0 0.00 0.00 0.00 29 1020.2
20200328170152 49 323 1.0 4.0 0.00 0.00 0.00 29 1020.0
20200328165549 49 0 0.0 4.0 0.00 0.00 0.00 29 1019.9
20200328165051 49 321 1.0 3.0 0.00 0.00 0.00 29 1020.1
20200328164736 49 203 1.0 4.0 0.00 0.00 0.00 29 1020.2
20200328164052 49 0 1.0 5.0 0.00 0.00 0.00 29 1020.3
20200328163555 49 148 2.0 5.0 0.00 0.00 0.00 30 1020.4
20200328163118 49 255 0.0 4.0 0.00 0.00 0.00 29 1020.4
20200328162550 49 270 0.0 4.0 0.00 0.00 0.00 29 1020.6